sensor_id;sensor_type;location;lat;lon;timestamp;pressure;altitude;pressure_sealevel;temperature
76895;BMP280;65855;42.030;13.078;2024-02-21T00:01:56;94193.13;;;7.23
76895;BMP280;65855;42.030;13.078;2024-02-21T00:04:21;94198.81;;;7.55
76895;BMP280;65855;42.030;13.078;2024-02-21T00:06:46;94189.50;;;7.50
76895;BMP280;65855;42.030;13.078;2024-02-21T00:09:12;94187.25;;;7.49
76895;BMP280;65855;42.030;13.078;2024-02-21T00:11:37;94187.75;;;7.46
76895;BMP280;65855;42.030;13.078;2024-02-21T00:14:03;94195.25;;;7.41
76895;BMP280;65855;42.030;13.078;2024-02-21T00:16:28;94188.19;;;7.33
76895;BMP280;65855;42.030;13.078;2024-02-21T00:18:53;94194.75;;;7.44
76895;BMP280;65855;42.030;13.078;2024-02-21T00:21:19;94184.28;;;7.57
76895;BMP280;65855;42.030;13.078;2024-02-21T00:23:44;94184.00;;;7.48
76895;BMP280;65855;42.030;13.078;2024-02-21T00:26:15;94187.19;;;7.34
76895;BMP280;65855;42.030;13.078;2024-02-21T00:28:41;94179.75;;;7.13
76895;BMP280;65855;42.030;13.078;2024-02-21T00:31:06;94181.59;;;7.22
76895;BMP280;65855;42.030;13.078;2024-02-21T00:33:32;94181.16;;;7.35
76895;BMP280;65855;42.030;13.078;2024-02-21T00:35:57;94192.22;;;7.44
76895;BMP280;65855;42.030;13.078;2024-02-21T00:38:22;94188.28;;;7.53
76895;BMP280;65855;42.030;13.078;2024-02-21T00:40:48;94184.41;;;7.36
76895;BMP280;65855;42.030;13.078;2024-02-21T00:43:13;94189.16;;;7.27
76895;BMP280;65855;42.030;13.078;2024-02-21T00:45:39;94186.53;;;7.13
76895;BMP280;65855;42.030;13.078;2024-02-21T00:48:04;94179.28;;;6.75
76895;BMP280;65855;42.030;13.078;2024-02-21T00:50:30;94188.81;;;6.78
76895;BMP280;65855;42.030;13.078;2024-02-21T00:52:55;94189.69;;;6.63
76895;BMP280;65855;42.030;13.078;2024-02-21T00:55:21;94184.63;;;6.58
76895;BMP280;65855;42.030;13.078;2024-02-21T00:57:47;94194.91;;;6.30
76895;BMP280;65855;42.030;13.078;2024-02-21T01:00:12;94206.13;;;6.28
76895;BMP280;65855;42.030;13.078;2024-02-21T01:02:38;94199.22;;;6.14
76895;BMP280;65855;42.030;13.078;2024-02-21T01:05:04;94199.88;;;5.83
76895;BMP280;65855;42.030;13.078;2024-02-21T01:07:29;94210.56;;;5.58
76895;BMP280;65855;42.030;13.078;2024-02-21T01:09:54;94196.19;;;5.11
76895;BMP280;65855;42.030;13.078;2024-02-21T01:12:20;94199.13;;;5.25
76895;BMP280;65855;42.030;13.078;2024-02-21T01:14:45;94198.78;;;5.37
76895;BMP280;65855;42.030;13.078;2024-02-21T01:17:12;94201.03;;;5.18
76895;BMP280;65855;42.030;13.078;2024-02-21T01:19:37;94192.06;;;4.25
76895;BMP280;65855;42.030;13.078;2024-02-21T01:22:04;94184.84;;;4.39
76895;BMP280;65855;42.030;13.078;2024-02-21T01:24:29;94192.72;;;4.64
76895;BMP280;65855;42.030;13.078;2024-02-21T01:26:55;94193.84;;;4.13
76895;BMP280;65855;42.030;13.078;2024-02-21T01:29:20;94189.13;;;4.28
76895;BMP280;65855;42.030;13.078;2024-02-21T01:31:46;94183.19;;;4.45
76895;BMP280;65855;42.030;13.078;2024-02-21T01:34:12;94188.09;;;4.56
76895;BMP280;65855;42.030;13.078;2024-02-21T01:36:38;94173.63;;;4.26
76895;BMP280;65855;42.030;13.078;2024-02-21T01:39:03;94174.88;;;3.84
76895;BMP280;65855;42.030;13.078;2024-02-21T01:41:31;94170.06;;;3.94
76895;BMP280;65855;42.030;13.078;2024-02-21T01:43:57;94169.66;;;4.13
76895;BMP280;65855;42.030;13.078;2024-02-21T01:46:24;94175.75;;;3.79
76895;BMP280;65855;42.030;13.078;2024-02-21T01:48:55;94174.41;;;3.99
76895;BMP280;65855;42.030;13.078;2024-02-21T01:51:21;94177.19;;;4.02
76895;BMP280;65855;42.030;13.078;2024-02-21T01:53:47;94179.84;;;3.84
76895;BMP280;65855;42.030;13.078;2024-02-21T01:56:12;94172.47;;;3.89
76895;BMP280;65855;42.030;13.078;2024-02-21T01:58:40;94167.59;;;4.10
76895;BMP280;65855;42.030;13.078;2024-02-21T02:01:07;94178.56;;;4.09
76895;BMP280;65855;42.030;13.078;2024-02-21T02:03:33;94173.34;;;3.83
76895;BMP280;65855;42.030;13.078;2024-02-21T02:05:59;94176.91;;;3.99
76895;BMP280;65855;42.030;13.078;2024-02-21T02:08:24;94178.00;;;4.19
76895;BMP280;65855;42.030;13.078;2024-02-21T02:10:50;94172.47;;;4.17
76895;BMP280;65855;42.030;13.078;2024-02-21T02:13:16;94179.59;;;3.97
76895;BMP280;65855;42.030;13.078;2024-02-21T02:15:45;94178.81;;;3.81
76895;BMP280;65855;42.030;13.078;2024-02-21T02:18:12;94184.41;;;3.87
76895;BMP280;65855;42.030;13.078;2024-02-21T02:20:38;94175.94;;;3.88
76895;BMP280;65855;42.030;13.078;2024-02-21T02:23:11;94171.91;;;3.60
76895;BMP280;65855;42.030;13.078;2024-02-21T02:25:38;94173.34;;;3.45
76895;BMP280;65855;42.030;13.078;2024-02-21T02:28:06;94165.72;;;3.01
76895;BMP280;65855;42.030;13.078;2024-02-21T02:30:35;94170.69;;;3.01
76895;BMP280;65855;42.030;13.078;2024-02-21T02:33:04;94160.28;;;3.27
76895;BMP280;65855;42.030;13.078;2024-02-21T02:35:30;94164.59;;;3.42
76895;BMP280;65855;42.030;13.078;2024-02-21T02:37:56;94176.31;;;3.08
76895;BMP280;65855;42.030;13.078;2024-02-21T02:40:21;94162.91;;;3.09
76895;BMP280;65855;42.030;13.078;2024-02-21T02:42:47;94176.00;;;2.71
76895;BMP280;65855;42.030;13.078;2024-02-21T02:45:17;94170.59;;;2.96
76895;BMP280;65855;42.030;13.078;2024-02-21T02:47:44;94173.16;;;2.56
76895;BMP280;65855;42.030;13.078;2024-02-21T02:50:11;94168.84;;;2.63
76895;BMP280;65855;42.030;13.078;2024-02-21T02:52:37;94174.59;;;2.75
76895;BMP280;65855;42.030;13.078;2024-02-21T02:55:03;94168.53;;;2.71
76895;BMP280;65855;42.030;13.078;2024-02-21T02:57:28;94172.53;;;2.61
76895;BMP280;65855;42.030;13.078;2024-02-21T02:59:54;94172.66;;;2.77
76895;BMP280;65855;42.030;13.078;2024-02-21T03:02:19;94171.78;;;2.83
76895;BMP280;65855;42.030;13.078;2024-02-21T03:04:45;94174.91;;;2.56
76895;BMP280;65855;42.030;13.078;2024-02-21T03:07:11;94176.00;;;2.71
76895;BMP280;65855;42.030;13.078;2024-02-21T03:09:37;94176.88;;;3.10
76895;BMP280;65855;42.030;13.078;2024-02-21T03:12:04;94181.97;;;2.81
76895;BMP280;65855;42.030;13.078;2024-02-21T03:14:30;94177.94;;;2.80
76895;BMP280;65855;42.030;13.078;2024-02-21T03:16:56;94178.16;;;2.16
76895;BMP280;65855;42.030;13.078;2024-02-21T03:19:21;94179.28;;;2.20
76895;BMP280;65855;42.030;13.078;2024-02-21T03:21:47;94166.38;;;1.83
76895;BMP280;65855;42.030;13.078;2024-02-21T03:24:15;94166.78;;;2.60
76895;BMP280;65855;42.030;13.078;2024-02-21T03:26:40;94188.06;;;1.93
76895;BMP280;65855;42.030;13.078;2024-02-21T03:29:06;94173.81;;;2.63
76895;BMP280;65855;42.030;13.078;2024-02-21T03:31:31;94182.16;;;1.59
76895;BMP280;65855;42.030;13.078;2024-02-21T03:33:56;94174.50;;;2.18
76895;BMP280;65855;42.030;13.078;2024-02-21T03:36:22;94165.19;;;2.14
76895;BMP280;65855;42.030;13.078;2024-02-21T03:38:47;94168.47;;;2.37
76895;BMP280;65855;42.030;13.078;2024-02-21T03:41:13;94171.41;;;2.34
76895;BMP280;65855;42.030;13.078;2024-02-21T03:43:38;94165.72;;;1.58
76895;BMP280;65855;42.030;13.078;2024-02-21T03:46:04;94158.31;;;1.98
76895;BMP280;65855;42.030;13.078;2024-02-21T03:48:30;94160.09;;;2.09
76895;BMP280;65855;42.030;13.078;2024-02-21T03:50:55;94175.31;;;2.01
76895;BMP280;65855;42.030;13.078;2024-02-21T03:53:21;94167.28;;;1.88
76895;BMP280;65855;42.030;13.078;2024-02-21T03:55:46;94172.97;;;1.77
76895;BMP280;65855;42.030;13.078;2024-02-21T03:58:12;94161.44;;;1.65
76895;BMP280;65855;42.030;13.078;2024-02-21T04:00:37;94159.69;;;1.37
76895;BMP280;65855;42.030;13.078;2024-02-21T04:03:03;94172.06;;;1.72
76895;BMP280;65855;42.030;13.078;2024-02-21T04:05:28;94170.09;;;1.63
76895;BMP280;65855;42.030;13.078;2024-02-21T04:07:54;94164.16;;;1.64
76895;BMP280;65855;42.030;13.078;2024-02-21T04:10:19;94173.69;;;1.14
76895;BMP280;65855;42.030;13.078;2024-02-21T04:12:44;94167.50;;;1.22
76895;BMP280;65855;42.030;13.078;2024-02-21T04:15:10;94167.34;;;1.35
76895;BMP280;65855;42.030;13.078;2024-02-21T04:17:36;94177.16;;;1.77
76895;BMP280;65855;42.030;13.078;2024-02-21T04:20:05;94196.50;;;1.04
76895;BMP280;65855;42.030;13.078;2024-02-21T04:22:33;94182.16;;;1.06
76895;BMP280;65855;42.030;13.078;2024-02-21T04:25:00;94174.44;;;0.96
76895;BMP280;65855;42.030;13.078;2024-02-21T04:27:25;94182.97;;;1.53
76895;BMP280;65855;42.030;13.078;2024-02-21T04:29:52;94174.56;;;1.01
76895;BMP280;65855;42.030;13.078;2024-02-21T04:32:18;94181.44;;;1.23
76895;BMP280;65855;42.030;13.078;2024-02-21T04:34:43;94177.44;;;0.81
76895;BMP280;65855;42.030;13.078;2024-02-21T04:37:08;94175.00;;;0.98
76895;BMP280;65855;42.030;13.078;2024-02-21T04:39:34;94185.69;;;0.99
76895;BMP280;65855;42.030;13.078;2024-02-21T04:41:59;94178.44;;;0.97
76895;BMP280;65855;42.030;13.078;2024-02-21T04:44:25;94171.63;;;0.69
76895;BMP280;65855;42.030;13.078;2024-02-21T04:46:50;94178.13;;;1.29
76895;BMP280;65855;42.030;13.078;2024-02-21T04:49:16;94179.19;;;0.98
76895;BMP280;65855;42.030;13.078;2024-02-21T04:51:41;94185.16;;;1.79
76895;BMP280;65855;42.030;13.078;2024-02-21T04:54:07;94193.75;;;1.12
76895;BMP280;65855;42.030;13.078;2024-02-21T04:56:32;94180.56;;;0.70
76895;BMP280;65855;42.030;13.078;2024-02-21T04:58:58;94172.66;;;1.03
76895;BMP280;65855;42.030;13.078;2024-02-21T05:01:23;94175.94;;;1.15
76895;BMP280;65855;42.030;13.078;2024-02-21T05:03:49;94173.66;;;0.78
76895;BMP280;65855;42.030;13.078;2024-02-21T05:06:14;94175.66;;;0.64
76895;BMP280;65855;42.030;13.078;2024-02-21T05:08:40;94172.91;;;0.78
76895;BMP280;65855;42.030;13.078;2024-02-21T05:11:06;94177.09;;;0.77
76895;BMP280;65855;42.030;13.078;2024-02-21T05:13:31;94173.84;;;0.77
76895;BMP280;65855;42.030;13.078;2024-02-21T05:15:56;94166.28;;;0.90
76895;BMP280;65855;42.030;13.078;2024-02-21T05:18:22;94176.31;;;1.36
76895;BMP280;65855;42.030;13.078;2024-02-21T05:20:47;94187.00;;;1.37
76895;BMP280;65855;42.030;13.078;2024-02-21T05:23:13;94185.88;;;1.15
76895;BMP280;65855;42.030;13.078;2024-02-21T05:25:38;94178.84;;;0.95
76895;BMP280;65855;42.030;13.078;2024-02-21T05:28:04;94174.34;;;0.85
76895;BMP280;65855;42.030;13.078;2024-02-21T05:30:31;94172.09;;;0.84
76895;BMP280;65855;42.030;13.078;2024-02-21T05:32:56;94181.03;;;1.02
76895;BMP280;65855;42.030;13.078;2024-02-21T05:35:27;94186.16;;;0.11
76895;BMP280;65855;42.030;13.078;2024-02-21T05:37:52;94167.78;;;0.25
76895;BMP280;65855;42.030;13.078;2024-02-21T05:40:18;94156.13;;;0.25
76895;BMP280;65855;42.030;13.078;2024-02-21T05:42:43;94152.81;;;0.38
76895;BMP280;65855;42.030;13.078;2024-02-21T05:45:09;94156.41;;;0.42
76895;BMP280;65855;42.030;13.078;2024-02-21T05:47:34;94162.94;;;0.60
76895;BMP280;65855;42.030;13.078;2024-02-21T05:50:00;94170.00;;;0.57
76895;BMP280;65855;42.030;13.078;2024-02-21T05:52:25;94166.78;;;0.32
76895;BMP280;65855;42.030;13.078;2024-02-21T05:54:51;94175.94;;;0.80
76895;BMP280;65855;42.030;13.078;2024-02-21T05:57:17;94187.28;;;0.46
76895;BMP280;65855;42.030;13.078;2024-02-21T05:59:43;94182.16;;;-0.20
76895;BMP280;65855;42.030;13.078;2024-02-21T06:02:09;94159.88;;;0.10
76895;BMP280;65855;42.030;13.078;2024-02-21T06:04:34;94169.53;;;0.18
76895;BMP280;65855;42.030;13.078;2024-02-21T06:07:01;94165.28;;;0.25
76895;BMP280;65855;42.030;13.078;2024-02-21T06:09:27;94178.66;;;0.24
76895;BMP280;65855;42.030;13.078;2024-02-21T06:11:52;94196.03;;;-0.56
76895;BMP280;65855;42.030;13.078;2024-02-21T06:14:19;94170.16;;;0.38
76895;BMP280;65855;42.030;13.078;2024-02-21T06:16:45;94211.63;;;0.55
76895;BMP280;65855;42.030;13.078;2024-02-21T06:19:10;94199.78;;;0.33
76895;BMP280;65855;42.030;13.078;2024-02-21T06:21:36;94211.75;;;0.36
76895;BMP280;65855;42.030;13.078;2024-02-21T06:24:02;94205.31;;;0.28
76895;BMP280;65855;42.030;13.078;2024-02-21T06:26:27;94208.69;;;-0.33
76895;BMP280;65855;42.030;13.078;2024-02-21T06:28:53;94203.34;;;-0.24
76895;BMP280;65855;42.030;13.078;2024-02-21T06:31:18;94197.72;;;0.23
76895;BMP280;65855;42.030;13.078;2024-02-21T06:33:43;94209.41;;;0.71
76895;BMP280;65855;42.030;13.078;2024-02-21T06:36:09;94222.38;;;0.43
76895;BMP280;65855;42.030;13.078;2024-02-21T06:38:34;94228.38;;;0.83
76895;BMP280;65855;42.030;13.078;2024-02-21T06:41:00;94240.25;;;1.41
76895;BMP280;65855;42.030;13.078;2024-02-21T06:43:27;94251.31;;;1.44
76895;BMP280;65855;42.030;13.078;2024-02-21T06:45:53;94260.97;;;1.70
76895;BMP280;65855;42.030;13.078;2024-02-21T06:48:20;94268.44;;;1.88
76895;BMP280;65855;42.030;13.078;2024-02-21T06:50:45;94275.31;;;1.86
76895;BMP280;65855;42.030;13.078;2024-02-21T06:53:11;94273.03;;;1.84
76895;BMP280;65855;42.030;13.078;2024-02-21T06:55:37;94272.69;;;2.45
76895;BMP280;65855;42.030;13.078;2024-02-21T06:58:02;94282.78;;;3.24
76895;BMP280;65855;42.030;13.078;2024-02-21T07:00:31;94298.59;;;3.74
76895;BMP280;65855;42.030;13.078;2024-02-21T07:02:56;94300.44;;;4.56
76895;BMP280;65855;42.030;13.078;2024-02-21T07:05:23;94307.25;;;3.94
76895;BMP280;65855;42.030;13.078;2024-02-21T07:07:48;94297.22;;;3.67
76895;BMP280;65855;42.030;13.078;2024-02-21T07:10:14;94296.06;;;3.97
76895;BMP280;65855;42.030;13.078;2024-02-21T07:12:39;94295.06;;;4.09
76895;BMP280;65855;42.030;13.078;2024-02-21T07:15:08;94291.38;;;4.50
76895;BMP280;65855;42.030;13.078;2024-02-21T07:17:34;94291.84;;;5.93
76895;BMP280;65855;42.030;13.078;2024-02-21T07:19:59;94296.03;;;7.38
76895;BMP280;65855;42.030;13.078;2024-02-21T07:22:26;94301.78;;;8.90
76895;BMP280;65855;42.030;13.078;2024-02-21T07:24:52;94304.47;;;10.21
76895;BMP280;65855;42.030;13.078;2024-02-21T07:27:17;94309.28;;;11.55
76895;BMP280;65855;42.030;13.078;2024-02-21T07:29:43;94300.91;;;12.56
76895;BMP280;65855;42.030;13.078;2024-02-21T07:32:12;94296.34;;;12.99
76895;BMP280;65855;42.030;13.078;2024-02-21T07:34:38;94295.81;;;12.38
76895;BMP280;65855;42.030;13.078;2024-02-21T07:37:03;94309.31;;;10.07
76895;BMP280;65855;42.030;13.078;2024-02-21T07:39:29;94312.41;;;9.46
76895;BMP280;65855;42.030;13.078;2024-02-21T07:41:54;94314.38;;;9.00
76895;BMP280;65855;42.030;13.078;2024-02-21T07:44:19;94324.69;;;8.18
76895;BMP280;65855;42.030;13.078;2024-02-21T07:46:45;94317.38;;;10.00
76895;BMP280;65855;42.030;13.078;2024-02-21T07:49:10;94319.81;;;11.29
76895;BMP280;65855;42.030;13.078;2024-02-21T07:51:36;94312.13;;;12.92
76895;BMP280;65855;42.030;13.078;2024-02-21T07:54:01;94302.59;;;14.27
76895;BMP280;65855;42.030;13.078;2024-02-21T07:56:29;94307.78;;;15.10
76895;BMP280;65855;42.030;13.078;2024-02-21T07:58:55;94305.00;;;15.33
76895;BMP280;65855;42.030;13.078;2024-02-21T08:01:20;94301.16;;;15.87
76895;BMP280;65855;42.030;13.078;2024-02-21T08:03:46;94305.56;;;16.71
76895;BMP280;65855;42.030;13.078;2024-02-21T08:06:13;94302.75;;;16.89
76895;BMP280;65855;42.030;13.078;2024-02-21T08:08:39;94300.31;;;16.68
76895;BMP280;65855;42.030;13.078;2024-02-21T08:11:04;94306.91;;;16.01
76895;BMP280;65855;42.030;13.078;2024-02-21T08:13:30;94308.91;;;16.34
76895;BMP280;65855;42.030;13.078;2024-02-21T08:15:55;94309.84;;;17.34
76895;BMP280;65855;42.030;13.078;2024-02-21T08:18:22;94309.09;;;17.42
76895;BMP280;65855;42.030;13.078;2024-02-21T08:20:47;94313.41;;;15.85
76895;BMP280;65855;42.030;13.078;2024-02-21T08:23:16;94306.25;;;17.10
76895;BMP280;65855;42.030;13.078;2024-02-21T08:25:42;94305.66;;;18.25
76895;BMP280;65855;42.030;13.078;2024-02-21T08:28:07;94307.31;;;17.26
76895;BMP280;65855;42.030;13.078;2024-02-21T08:30:33;94306.41;;;18.33
76895;BMP280;65855;42.030;13.078;2024-02-21T08:32:59;94308.78;;;17.10
76895;BMP280;65855;42.030;13.078;2024-02-21T08:35:25;94309.50;;;18.47
76895;BMP280;65855;42.030;13.078;2024-02-21T08:37:50;94312.38;;;19.23
76895;BMP280;65855;42.030;13.078;2024-02-21T08:40:16;94317.13;;;19.32
76895;BMP280;65855;42.030;13.078;2024-02-21T08:42:46;94315.00;;;18.21
76895;BMP280;65855;42.030;13.078;2024-02-21T08:45:12;94320.63;;;13.99
76895;BMP280;65855;42.030;13.078;2024-02-21T08:47:40;94307.66;;;12.84
76895;BMP280;65855;42.030;13.078;2024-02-21T08:50:07;94311.22;;;14.66
76895;BMP280;65855;42.030;13.078;2024-02-21T08:52:32;94304.66;;;13.18
76895;BMP280;65855;42.030;13.078;2024-02-21T08:54:58;94298.75;;;13.72
76895;BMP280;65855;42.030;13.078;2024-02-21T08:57:23;94290.81;;;16.52
76895;BMP280;65855;42.030;13.078;2024-02-21T08:59:49;94290.59;;;15.72
76895;BMP280;65855;42.030;13.078;2024-02-21T09:02:14;94289.63;;;17.12
76895;BMP280;65855;42.030;13.078;2024-02-21T09:04:43;94286.69;;;19.19
76895;BMP280;65855;42.030;13.078;2024-02-21T09:07:11;94283.00;;;19.69
76895;BMP280;65855;42.030;13.078;2024-02-21T09:09:37;94280.34;;;21.03
76895;BMP280;65855;42.030;13.078;2024-02-21T09:12:07;94289.47;;;21.16
76895;BMP280;65855;42.030;13.078;2024-02-21T09:14:33;94293.66;;;21.59
76895;BMP280;65855;42.030;13.078;2024-02-21T09:16:58;94292.91;;;22.73
76895;BMP280;65855;42.030;13.078;2024-02-21T09:19:24;94291.59;;;23.31
76895;BMP280;65855;42.030;13.078;2024-02-21T09:21:49;94287.69;;;23.74
76895;BMP280;65855;42.030;13.078;2024-02-21T09:24:15;94284.78;;;24.16
76895;BMP280;65855;42.030;13.078;2024-02-21T09:26:40;94290.59;;;23.73
76895;BMP280;65855;42.030;13.078;2024-02-21T09:29:05;94279.53;;;24.54
76895;BMP280;65855;42.030;13.078;2024-02-21T09:31:31;94281.69;;;23.67
76895;BMP280;65855;42.030;13.078;2024-02-21T09:33:57;94286.22;;;23.55
76895;BMP280;65855;42.030;13.078;2024-02-21T09:36:22;94277.66;;;23.88
76895;BMP280;65855;42.030;13.078;2024-02-21T09:38:47;94281.22;;;23.84
76895;BMP280;65855;42.030;13.078;2024-02-21T09:41:25;94277.34;;;24.11
76895;BMP280;65855;42.030;13.078;2024-02-21T09:43:52;94279.28;;;20.92
76895;BMP280;65855;42.030;13.078;2024-02-21T09:46:24;94291.34;;;22.38
76895;BMP280;65855;42.030;13.078;2024-02-21T09:51:53;94275.84;;;24.55
76895;BMP280;65855;42.030;13.078;2024-02-21T09:54:21;94275.44;;;25.55
76895;BMP280;65855;42.030;13.078;2024-02-21T09:56:47;94282.19;;;24.60
76895;BMP280;65855;42.030;13.078;2024-02-21T09:59:16;94278.16;;;24.15
76895;BMP280;65855;42.030;13.078;2024-02-21T10:01:42;94285.91;;;24.85
76895;BMP280;65855;42.030;13.078;2024-02-21T10:04:09;94288.69;;;24.29
76895;BMP280;65855;42.030;13.078;2024-02-21T10:06:35;94286.69;;;25.40
76895;BMP280;65855;42.030;13.078;2024-02-21T10:09:03;94284.38;;;26.32
76895;BMP280;65855;42.030;13.078;2024-02-21T10:11:28;94286.84;;;26.22
76895;BMP280;65855;42.030;13.078;2024-02-21T10:14:06;94291.53;;;25.19
76895;BMP280;65855;42.030;13.078;2024-02-21T10:16:33;94287.16;;;23.47
76895;BMP280;65855;42.030;13.078;2024-02-21T10:18:59;94290.84;;;24.71
76895;BMP280;65855;42.030;13.078;2024-02-21T10:21:24;94302.59;;;25.16
76895;BMP280;65855;42.030;13.078;2024-02-21T10:23:50;94289.47;;;23.52
76895;BMP280;65855;42.030;13.078;2024-02-21T10:26:20;94293.38;;;24.90
76895;BMP280;65855;42.030;13.078;2024-02-21T10:28:46;94290.78;;;24.68
76895;BMP280;65855;42.030;13.078;2024-02-21T10:31:23;94292.19;;;26.39
76895;BMP280;65855;42.030;13.078;2024-02-21T10:33:56;94290.03;;;26.44
76895;BMP280;65855;42.030;13.078;2024-02-21T10:36:22;94296.56;;;26.31
76895;BMP280;65855;42.030;13.078;2024-02-21T10:38:48;94291.47;;;25.70
76895;BMP280;65855;42.030;13.078;2024-02-21T10:41:14;94286.66;;;26.83
76895;BMP280;65855;42.030;13.078;2024-02-21T10:43:41;94285.66;;;26.52
76895;BMP280;65855;42.030;13.078;2024-02-21T10:46:09;94289.69;;;26.06
76895;BMP280;65855;42.030;13.078;2024-02-21T10:48:45;94285.00;;;25.86
76895;BMP280;65855;42.030;13.078;2024-02-21T10:51:19;94279.16;;;25.28
76895;BMP280;65855;42.030;13.078;2024-02-21T10:53:54;94275.66;;;26.11
76895;BMP280;65855;42.030;13.078;2024-02-21T10:56:31;94281.34;;;25.91
76895;BMP280;65855;42.030;13.078;2024-02-21T10:59:02;94268.69;;;26.11
76895;BMP280;65855;42.030;13.078;2024-02-21T11:01:31;94270.34;;;24.78
76895;BMP280;65855;42.030;13.078;2024-02-21T11:04:07;94273.03;;;25.72
76895;BMP280;65855;42.030;13.078;2024-02-21T11:06:35;94269.97;;;26.31
76895;BMP280;65855;42.030;13.078;2024-02-21T11:09:10;94262.13;;;26.63
76895;BMP280;65855;42.030;13.078;2024-02-21T11:11:38;94255.69;;;25.40
76895;BMP280;65855;42.030;13.078;2024-02-21T11:14:21;94251.34;;;26.15
76895;BMP280;65855;42.030;13.078;2024-02-21T11:16:47;94255.31;;;26.98
76895;BMP280;65855;42.030;13.078;2024-02-21T11:19:25;94244.94;;;26.03
76895;BMP280;65855;42.030;13.078;2024-02-21T11:21:52;94247.63;;;22.08
76895;BMP280;65855;42.030;13.078;2024-02-21T11:24:31;94251.09;;;20.33
76895;BMP280;65855;42.030;13.078;2024-02-21T11:27:14;94246.00;;;19.46
76895;BMP280;65855;42.030;13.078;2024-02-21T11:29:44;94249.53;;;20.52
76895;BMP280;65855;42.030;13.078;2024-02-21T11:32:10;94235.81;;;23.01
76895;BMP280;65855;42.030;13.078;2024-02-21T11:34:39;94233.13;;;25.37
76895;BMP280;65855;42.030;13.078;2024-02-21T11:37:14;94222.69;;;26.34
76895;BMP280;65855;42.030;13.078;2024-02-21T11:39:43;94222.53;;;27.26
76895;BMP280;65855;42.030;13.078;2024-02-21T11:42:09;94212.38;;;27.88
76895;BMP280;65855;42.030;13.078;2024-02-21T11:44:35;94221.69;;;28.20
76895;BMP280;65855;42.030;13.078;2024-02-21T11:47:03;94217.97;;;27.93
76895;BMP280;65855;42.030;13.078;2024-02-21T11:49:29;94220.56;;;28.34
76895;BMP280;65855;42.030;13.078;2024-02-21T11:52:01;94217.66;;;28.49
76895;BMP280;65855;42.030;13.078;2024-02-21T11:54:32;94216.78;;;27.74
76895;BMP280;65855;42.030;13.078;2024-02-21T11:56:59;94210.94;;;28.48
76895;BMP280;65855;42.030;13.078;2024-02-21T11:59:25;94202.03;;;28.70
76895;BMP280;65855;42.030;13.078;2024-02-21T12:01:50;94198.28;;;28.92
76895;BMP280;65855;42.030;13.078;2024-02-21T12:04:18;94193.81;;;29.09
76895;BMP280;65855;42.030;13.078;2024-02-21T12:06:45;94199.06;;;28.82
76895;BMP280;65855;42.030;13.078;2024-02-21T12:09:14;94185.41;;;29.62
76895;BMP280;65855;42.030;13.078;2024-02-21T12:11:41;94177.72;;;30.02
76895;BMP280;65855;42.030;13.078;2024-02-21T12:14:06;94173.03;;;29.83
76895;BMP280;65855;42.030;13.078;2024-02-21T12:16:33;94172.47;;;29.55
76895;BMP280;65855;42.030;13.078;2024-02-21T12:18:59;94167.50;;;29.74
76895;BMP280;65855;42.030;13.078;2024-02-21T12:21:34;94168.22;;;29.82
76895;BMP280;65855;42.030;13.078;2024-02-21T12:24:17;94168.88;;;29.89
76895;BMP280;65855;42.030;13.078;2024-02-21T12:26:43;94164.22;;;30.24
76895;BMP280;65855;42.030;13.078;2024-02-21T12:29:09;94162.50;;;30.00
76895;BMP280;65855;42.030;13.078;2024-02-21T12:31:36;94151.75;;;30.45
76895;BMP280;65855;42.030;13.078;2024-02-21T12:34:02;94158.44;;;29.99
76895;BMP280;65855;42.030;13.078;2024-02-21T12:36:27;94148.19;;;30.68
76895;BMP280;65855;42.030;13.078;2024-02-21T12:38:53;94145.13;;;31.13
76895;BMP280;65855;42.030;13.078;2024-02-21T12:41:18;94138.63;;;29.62
76895;BMP280;65855;42.030;13.078;2024-02-21T12:43:44;94138.69;;;28.30
76895;BMP280;65855;42.030;13.078;2024-02-21T12:46:09;94139.84;;;29.41
76895;BMP280;65855;42.030;13.078;2024-02-21T12:48:34;94134.28;;;30.82
76895;BMP280;65855;42.030;13.078;2024-02-21T12:51:00;94133.97;;;31.09
76895;BMP280;65855;42.030;13.078;2024-02-21T12:53:25;94127.97;;;31.71
76895;BMP280;65855;42.030;13.078;2024-02-21T12:55:51;94122.34;;;32.21
76895;BMP280;65855;42.030;13.078;2024-02-21T12:58:16;94112.66;;;31.95
76895;BMP280;65855;42.030;13.078;2024-02-21T13:00:42;94109.41;;;32.14
76895;BMP280;65855;42.030;13.078;2024-02-21T13:03:08;94108.38;;;32.91
76895;BMP280;65855;42.030;13.078;2024-02-21T13:05:37;94107.06;;;31.97
76895;BMP280;65855;42.030;13.078;2024-02-21T13:08:07;94096.53;;;33.06
76895;BMP280;65855;42.030;13.078;2024-02-21T13:10:33;94096.53;;;33.60
76895;BMP280;65855;42.030;13.078;2024-02-21T13:13:01;94102.50;;;32.46
76895;BMP280;65855;42.030;13.078;2024-02-21T13:15:27;94101.19;;;31.67
76895;BMP280;65855;42.030;13.078;2024-02-21T13:17:55;94098.19;;;28.70
76895;BMP280;65855;42.030;13.078;2024-02-21T13:20:20;94118.75;;;23.48
76895;BMP280;65855;42.030;13.078;2024-02-21T13:22:46;94120.78;;;19.06
76895;BMP280;65855;42.030;13.078;2024-02-21T13:25:12;94120.75;;;18.94
76895;BMP280;65855;42.030;13.078;2024-02-21T13:27:41;94115.38;;;24.39
76895;BMP280;65855;42.030;13.078;2024-02-21T13:30:06;94114.75;;;25.39
76895;BMP280;65855;42.030;13.078;2024-02-21T13:32:34;94103.13;;;27.99
76895;BMP280;65855;42.030;13.078;2024-02-21T13:34:59;94109.50;;;25.32
76895;BMP280;65855;42.030;13.078;2024-02-21T13:37:27;94108.84;;;24.19
76895;BMP280;65855;42.030;13.078;2024-02-21T13:39:53;94109.38;;;20.18
76895;BMP280;65855;42.030;13.078;2024-02-21T13:42:19;94117.06;;;20.18
76895;BMP280;65855;42.030;13.078;2024-02-21T13:44:45;94105.94;;;21.60
76895;BMP280;65855;42.030;13.078;2024-02-21T13:47:14;94105.22;;;24.78
76895;BMP280;65855;42.030;13.078;2024-02-21T13:49:39;94100.53;;;22.78
76895;BMP280;65855;42.030;13.078;2024-02-21T13:52:05;94094.56;;;25.94
76895;BMP280;65855;42.030;13.078;2024-02-21T13:54:30;94086.75;;;28.54
76895;BMP280;65855;42.030;13.078;2024-02-21T13:56:56;94097.91;;;26.51
76895;BMP280;65855;42.030;13.078;2024-02-21T13:59:21;94094.22;;;25.17
76895;BMP280;65855;42.030;13.078;2024-02-21T14:01:47;94097.22;;;22.96
76895;BMP280;65855;42.030;13.078;2024-02-21T14:04:14;94108.69;;;22.13